Time;durP1;ratioP1;P1;durP2;ratioP2;P2;SDS_P1;SDS_P2;PMS_P1;PMS_P2;Temp;Humidity;BMP_temperature;BMP_pressure;BME280_temperature;BME280_humidity;BME280_pressure;Samples;Min_cycle;Max_cycle;Signal;HPM_P1;HPM_P2
2022/12/25 00:00:11;;;;;;;33.67;7.78;;;1.60;99.90;;;;;;6161085;23;19998;-71
2022/12/25 00:02:39;;;;;;;25.55;8.55;;;1.60;99.90;;;;;;6160284;23;20005;-71
2022/12/25 00:05:07;;;;;;;30.92;9.45;;;1.60;99.90;;;;;;6160295;23;20060;-71
2022/12/25 00:07:34;;;;;;;34.30;9.18;;;1.60;99.90;;;;;;6160533;23;20056;-71
2022/12/25 00:10:01;;;;;;;29.35;9.10;;;1.60;99.90;;;;;;6161053;23;20372;-71
2022/12/25 00:12:29;;;;;;;32.65;9.05;;;1.60;99.90;;;;;;6160245;23;20005;-71
2022/12/25 00:14:56;;;;;;;30.48;8.82;;;1.60;99.90;;;;;;6158893;23;20009;-71
2022/12/25 00:17:23;;;;;;;33.00;9.23;;;1.50;99.90;;;;;;6159204;23;20012;-71
2022/12/25 00:19:51;;;;;;;29.70;8.05;;;1.50;99.90;;;;;;6158993;23;20001;-71
2022/12/25 00:22:19;;;;;;;23.20;8.63;;;1.50;99.90;;;;;;6159950;23;20270;-71
2022/12/25 00:24:50;;;;;;;32.85;8.40;;;1.50;99.90;;;;;;6158899;23;20049;-71
2022/12/25 00:27:17;;;;;;;30.38;8.38;;;1.50;99.90;;;;;;6160394;23;20005;-71
2022/12/25 00:29:44;;;;;;;32.85;8.40;;;1.50;99.90;;;;;;6159044;23;20361;-71
2022/12/25 00:32:12;;;;;;;25.08;7.43;;;1.50;99.90;;;;;;6158886;23;20064;-71
2022/12/25 00:34:39;;;;;;;27.38;7.82;;;1.40;99.90;;;;;;6158879;23;20278;-71
2022/12/25 00:37:07;;;;;;;26.25;7.55;;;1.40;99.90;;;;;;6160226;23;20009;-71
2022/12/25 00:39:35;;;;;;;30.23;7.68;;;1.40;99.90;;;;;;6160128;23;20057;-71
2022/12/25 00:42:18;;;;;;;26.17;7.15;;;1.40;99.90;;;;;;6160121;23;20077;-71
2022/12/25 00:44:50;;;;;;;37.50;8.55;;;1.50;99.90;;;;;;6160090;23;20009;-71
2022/12/25 00:47:18;;;;;;;28.52;7.68;;;1.50;99.90;;;;;;6160061;23;20378;-71
2022/12/25 00:49:46;;;;;;;19.33;6.13;;;1.50;99.90;;;;;;6159131;23;20081;-71
2022/12/25 00:52:14;;;;;;;31.40;8.30;;;1.50;99.90;;;;;;6160080;23;20308;-71
2022/12/25 00:54:41;;;;;;;24.67;7.20;;;1.50;99.90;;;;;;6158627;23;20005;-71
2022/12/25 00:57:08;;;;;;;23.73;8.93;;;1.50;99.90;;;;;;6134469;23;20278;-71
2022/12/25 00:59:36;;;;;;;23.58;7.47;;;1.50;99.90;;;;;;6160710;23;19998;-71
2022/12/25 01:04:57;;;;;;;27.33;6.90;;;1.50;99.90;;;;;;6159826;23;20013;-71
2022/12/25 01:07:26;;;;;;;28.25;7.05;;;1.60;99.90;;;;;;6159987;23;20007;-71
2022/12/25 01:12:42;;;;;;;32.83;7.07;;;1.70;99.90;;;;;;6163728;23;20064;-71
2022/12/25 01:15:10;;;;;;;30.75;7.25;;;1.80;99.90;;;;;;6163264;23;20005;-71
2022/12/25 01:17:38;;;;;;;28.33;7.88;;;1.90;99.90;;;;;;6163248;23;20010;-71
2022/12/25 01:20:06;;;;;;;26.92;7.75;;;2.00;99.90;;;;;;6161808;23;20037;-71
2022/12/25 01:22:34;;;;;;;16.77;6.00;;;2.10;99.90;;;;;;6163194;23;20010;-71
2022/12/25 01:25:03;;;;;;;19.77;6.47;;;2.10;99.90;;;;;;6161898;23;20274;-71
2022/12/25 01:27:32;;;;;;;37.58;7.13;;;2.10;99.90;;;;;;6161852;23;20017;-71
2022/12/25 01:30:00;;;;;;;23.92;6.38;;;2.10;99.90;;;;;;6163087;23;20001;-71
2022/12/25 01:32:27;;;;;;;32.03;6.45;;;2.10;99.90;;;;;;6163940;23;20002;-72
2022/12/25 01:34:54;;;;;;;17.45;7.15;;;2.10;99.90;;;;;;6162905;23;20059;-72
2022/12/25 01:37:23;;;;;;;26.80;5.97;;;2.20;99.90;;;;;;6163077;23;20006;-71
2022/12/25 01:39:51;;;;;;;26.98;6.10;;;2.20;99.90;;;;;;6163321;23;20006;-71
2022/12/25 01:42:20;;;;;;;17.05;6.70;;;2.30;99.90;;;;;;6163289;23;20001;-71
2022/12/25 01:44:48;;;;;;;27.98;7.63;;;2.40;99.90;;;;;;6163727;23;20002;-71
2022/12/25 01:47:17;;;;;;;21.85;6.78;;;2.40;99.90;;;;;;6163841;23;20076;-71
2022/12/25 01:49:49;;;;;;;25.42;6.43;;;2.50;99.90;;;;;;6163031;23;20092;-71
2022/12/25 01:52:23;;;;;;;21.80;6.93;;;2.60;99.90;;;;;;6163579;23;20010;-71
2022/12/25 01:55:00;;;;;;;29.85;7.47;;;2.70;99.90;;;;;;6162862;23;20012;-71
2022/12/25 01:57:34;;;;;;;17.60;5.78;;;2.70;99.90;;;;;;6161844;23;20061;-72
2022/12/25 02:00:09;;;;;;;19.55;5.85;;;2.80;99.90;;;;;;6161672;23;20011;-71
2022/12/25 02:02:37;;;;;;;25.25;6.57;;;2.80;99.90;;;;;;6161712;23;20012;-71
2022/12/25 02:05:28;;;;;;;23.50;6.63;;;2.80;99.90;;;;;;6162994;23;20001;-71
2022/12/25 02:07:59;;;;;;;19.50;6.97;;;2.70;99.90;;;;;;6163035;23;20002;-71
2022/12/25 02:10:27;;;;;;;26.17;7.03;;;2.70;99.90;;;;;;6163484;23;20013;-71
2022/12/25 02:12:55;;;;;;;26.17;7.97;;;2.70;99.90;;;;;;6163599;23;20012;-71
2022/12/25 02:15:42;;;;;;;30.58;7.03;;;2.70;99.90;;;;;;6163662;23;20072;-71
2022/12/25 02:18:12;;;;;;;30.85;7.10;;;2.60;99.90;;;;;;6163107;23;20370;-71
2022/12/25 02:21:05;;;;;;;28.73;6.15;;;2.60;99.90;;;;;;6160018;23;20005;-71
2022/12/25 02:24:00;;;;;;;16.73;5.60;;;2.50;99.90;;;;;;6160308;23;20427;-71
2022/12/25 02:26:56;;;;;;;22.60;6.65;;;2.50;99.90;;;;;;6160371;23;20006;-71
2022/12/25 02:29:30;;;;;;;23.67;6.20;;;2.40;99.90;;;;;;6159622;23;20010;-71
2022/12/25 02:32:34;;;;;;;32.05;6.70;;;2.40;99.90;;;;;;6160289;23;20430;-71
2022/12/25 02:35:22;;;;;;;21.50;6.53;;;2.30;99.90;;;;;;6159334;23;20260;-71
2022/12/25 02:38:07;;;;;;;22.17;6.78;;;2.30;99.90;;;;;;6160097;23;20025;-71
2022/12/25 02:40:50;;;;;;;18.65;5.45;;;2.20;99.90;;;;;;6159573;23;20363;-71
2022/12/25 03:06:42;;;;;;;20.90;6.18;;;2.00;99.90;;;;;;6159778;23;20259;-71
2022/12/25 03:12:42;;;;;;;24.13;7.22;;;2.10;99.90;;;;;;6159778;23;20017;-71
2022/12/25 03:18:01;;;;;;;27.08;6.60;;;2.10;99.90;;;;;;6159303;23;20081;-71
2022/12/25 03:28:53;;;;;;;25.30;6.65;;;2.40;99.90;;;;;;6161126;23;20076;-71
2022/12/25 03:31:27;;;;;;;23.17;5.97;;;2.50;99.90;;;;;;6159311;23;20057;-71
2022/12/25 04:36:10;;;;;;;22.77;6.55;;;4.60;99.90;;;;;;6160553;23;20024;-71
2022/12/25 04:38:39;;;;;;;25.08;7.00;;;4.60;99.90;;;;;;6160277;23;20266;-71
2022/12/25 04:41:08;;;;;;;16.25;5.35;;;4.60;99.90;;;;;;6160484;23;20038;-71
2022/12/25 04:43:35;;;;;;;21.85;6.53;;;4.60;99.90;;;;;;6159936;23;20063;-71
2022/12/25 04:46:03;;;;;;;21.70;7.05;;;4.70;99.90;;;;;;6160135;23;20001;-71
2022/12/25 04:48:33;;;;;;;19.00;5.97;;;4.80;99.90;;;;;;6161058;23;20032;-71
2022/12/25 04:51:12;;;;;;;26.40;7.20;;;4.90;99.90;;;;;;6160629;23;20005;-71
2022/12/25 04:53:40;;;;;;;42.53;7.68;;;5.00;99.90;;;;;;6160425;23;20270;-71
2022/12/25 04:56:07;;;;;;;24.67;6.88;;;5.00;99.90;;;;;;6160367;23;20006;-71
2022/12/25 04:58:35;;;;;;;23.45;7.22;;;5.00;99.90;;;;;;6160085;23;19998;-71
2022/12/25 05:01:03;;;;;;;17.38;6.53;;;5.00;99.90;;;;;;6160053;23;20032;-71
2022/12/25 05:03:30;;;;;;;22.20;7.45;;;4.90;99.90;;;;;;6160125;23;20371;-71
2022/12/25 05:05:58;;;;;;;24.08;6.53;;;4.90;99.90;;;;;;6159092;23;20386;-71
2022/12/25 05:08:25;;;;;;;20.55;7.28;;;4.80;99.90;;;;;;6158679;23;20013;-71
2022/12/25 05:10:53;;;;;;;22.73;6.68;;;4.80;99.90;;;;;;6159963;23;20370;-71
2022/12/25 05:13:20;;;;;;;25.65;7.45;;;4.80;99.90;;;;;;6160048;23;20085;-71
2022/12/25 05:15:47;;;;;;;23.30;7.05;;;4.80;99.90;;;;;;6159941;23;20052;-71
2022/12/25 05:18:15;;;;;;;25.58;6.72;;;4.80;99.90;;;;;;6160611;23;19998;-71
2022/12/25 05:20:50;;;;;;;18.05;6.25;;;4.80;99.90;;;;;;6158566;23;20008;-71
2022/12/25 05:23:18;;;;;;;23.65;6.55;;;4.80;99.90;;;;;;6158409;23;20018;-71
2022/12/25 05:25:46;;;;;;;23.67;7.70;;;4.70;99.90;;;;;;6160558;23;20001;-71
2022/12/25 05:28:13;;;;;;;23.85;6.88;;;4.70;99.90;;;;;;6159926;23;20383;-71
2022/12/25 05:30:40;;;;;;;24.38;6.30;;;4.70;99.90;;;;;;6158512;23;20016;-71
2022/12/25 05:33:07;;;;;;;28.48;7.00;;;4.70;99.90;;;;;;6159841;23;20005;-71
2022/12/25 05:35:37;;;;;;;26.42;9.25;;;4.70;99.90;;;;;;6158538;23;20006;-71
2022/12/25 05:38:04;;;;;;;33.92;8.10;;;4.70;99.90;;;;;;6159889;23;20032;-71
2022/12/25 05:40:32;;;;;;;28.13;6.97;;;4.70;99.90;;;;;;6159690;23;20076;-71
2022/12/25 05:43:00;;;;;;;21.05;6.38;;;4.70;99.90;;;;;;6158647;23;20060;-72
2022/12/25 05:45:27;;;;;;;27.42;8.15;;;4.70;99.90;;;;;;6160464;23;20005;-71
2022/12/25 05:47:54;;;;;;;18.65;7.68;;;4.70;99.90;;;;;;6158423;23;20113;-71
2022/12/25 05:50:21;;;;;;;18.80;7.78;;;4.70;99.90;;;;;;6160429;23;19998;-71
2022/12/25 05:52:49;;;;;;;39.92;7.70;;;4.70;99.90;;;;;;6159905;23;20044;-71
2022/12/25 05:55:16;;;;;;;27.17;9.27;;;4.80;99.90;;;;;;6160590;23;20056;-71
2022/12/25 05:57:43;;;;;;;25.95;7.72;;;4.70;99.90;;;;;;6160350;23;20002;-71
2022/12/25 06:00:11;;;;;;;23.25;6.57;;;4.70;99.90;;;;;;6161940;23;20236;-71
2022/12/25 06:02:38;;;;;;;22.02;7.00;;;4.80;99.90;;;;;;6160424;23;20224;-71
2022/12/25 06:05:06;;;;;;;23.83;7.50;;;4.70;99.90;;;;;;6160751;23;20017;-71
2022/12/25 06:07:34;;;;;;;26.48;6.80;;;4.70;99.90;;;;;;6160273;23;20006;-71
2022/12/25 06:10:01;;;;;;;25.50;7.50;;;4.80;99.90;;;;;;6161411;23;20060;-71
2022/12/25 06:12:28;;;;;;;23.88;7.25;;;4.80;99.90;;;;;;6161605;23;20008;-71
2022/12/25 06:14:56;;;;;;;21.42;6.72;;;4.80;99.90;;;;;;6160056;23;20084;-71
2022/12/25 06:17:27;;;;;;;26.38;6.75;;;4.90;99.90;;;;;;6160852;23;20008;-71
2022/12/25 06:19:54;;;;;;;25.50;7.38;;;5.00;99.90;;;;;;6161255;23;20056;-71
2022/12/25 06:22:21;;;;;;;21.70;7.60;;;5.10;99.90;;;;;;6160050;23;20141;-72
2022/12/25 06:24:48;;;;;;;23.42;7.75;;;5.20;99.90;;;;;;6161409;23;20013;-71
2022/12/25 06:27:15;;;;;;;20.25;8.15;;;5.20;99.90;;;;;;6162063;23;20007;-71
2022/12/25 06:29:43;;;;;;;24.70;7.53;;;5.30;99.90;;;;;;6161227;23;20271;-71
2022/12/25 06:32:11;;;;;;;21.35;6.65;;;5.20;99.90;;;;;;6162118;23;20080;-71
2022/12/25 06:34:38;;;;;;;21.83;7.65;;;5.30;99.90;;;;;;6161026;23;20327;-71
2022/12/25 06:37:06;;;;;;;33.35;6.30;;;5.20;99.90;;;;;;6159932;23;20001;-71
2022/12/25 06:39:34;;;;;;;29.60;8.82;;;5.30;99.90;;;;;;6161539;23;20005;-71
2022/12/25 06:42:01;;;;;;;25.38;7.53;;;5.30;99.90;;;;;;6159813;23;20379;-71
2022/12/25 06:44:28;;;;;;;19.73;6.38;;;5.30;99.90;;;;;;6159871;23;20067;-71
2022/12/25 06:46:56;;;;;;;30.00;6.47;;;5.40;99.90;;;;;;6161165;23;20002;-71
2022/12/25 06:49:24;;;;;;;27.92;8.38;;;5.40;99.90;;;;;;6159731;23;20010;-71
2022/12/25 06:51:52;;;;;;;26.00;6.75;;;5.40;99.90;;;;;;6161073;23;20028;-71
2022/12/25 06:54:19;;;;;;;20.58;6.63;;;5.50;99.90;;;;;;6160906;23;20304;-71
2022/12/25 06:56:46;;;;;;;21.00;6.38;;;5.50;99.90;;;;;;6161134;23;20371;-71
2022/12/25 06:59:14;;;;;;;26.67;7.25;;;5.60;99.90;;;;;;6161448;23;20006;-71
2022/12/25 07:01:51;;;;;;;19.85;6.63;;;5.60;99.90;;;;;;6161695;23;19998;-72
2022/12/25 07:04:41;;;;;;;21.15;7.10;;;5.70;99.90;;;;;;6161280;23;20005;-72
2022/12/25 07:07:09;;;;;;;29.00;7.18;;;5.70;99.90;;;;;;6161599;23;20085;-72
2022/12/25 07:09:41;;;;;;;31.30;8.18;;;5.70;99.90;;;;;;6161612;23;20347;-71
2022/12/25 07:12:19;;;;;;;21.30;7.10;;;5.70;99.90;;;;;;6160937;23;20315;-71
2022/12/25 07:14:48;;;;;;;31.25;7.57;;;5.80;99.90;;;;;;6160665;23;20335;-72
2022/12/25 07:17:16;;;;;;;24.75;7.65;;;5.80;99.90;;;;;;6160981;23;20379;-71
2022/12/25 07:19:47;;;;;;;21.58;7.20;;;5.70;99.90;;;;;;6160937;23;20002;-71
2022/12/25 07:22:15;;;;;;;21.38;7.25;;;5.70;99.90;;;;;;6160625;23;19998;-72
2022/12/25 07:24:42;;;;;;;20.52;6.85;;;5.70;99.90;;;;;;6160808;23;20390;-72
2022/12/25 07:27:10;;;;;;;21.45;6.22;;;5.80;99.90;;;;;;6160232;23;20006;-71
2022/12/25 07:29:37;;;;;;;21.58;7.40;;;5.80;99.90;;;;;;6160747;23;20390;-72
2022/12/25 07:32:06;;;;;;;28.92;7.07;;;5.90;99.90;;;;;;6159597;23;20319;-72
2022/12/25 07:34:33;;;;;;;25.27;6.32;;;6.00;99.90;;;;;;6160399;23;20033;-72
2022/12/25 07:37:00;;;;;;;26.95;6.50;;;6.10;99.90;;;;;;6161415;23;20085;-72
2022/12/25 07:39:27;;;;;;;23.77;7.10;;;6.20;99.90;;;;;;6160598;23;19998;-72
2022/12/25 07:41:55;;;;;;;19.23;7.60;;;6.20;99.90;;;;;;6160626;23;19998;-72
2022/12/25 07:44:22;;;;;;;24.17;7.40;;;6.30;99.90;;;;;;6159429;23;20009;-72
2022/12/25 07:46:49;;;;;;;23.33;7.90;;;6.30;99.90;;;;;;6160610;23;20001;-72
2022/12/25 07:49:16;;;;;;;26.10;7.55;;;6.30;99.90;;;;;;6160444;23;20286;-71
2022/12/25 07:51:44;;;;;;;24.65;7.45;;;6.40;99.90;;;;;;6159245;23;20010;-71
2022/12/25 07:54:11;;;;;;;21.98;6.80;;;6.40;99.90;;;;;;6160658;23;20060;-72
2022/12/25 07:56:38;;;;;;;22.42;6.80;;;6.50;99.90;;;;;;6161154;23;19997;-71
2022/12/25 07:59:05;;;;;;;26.20;8.68;;;6.50;99.90;;;;;;6161187;23;20001;-72
2022/12/25 08:01:33;;;;;;;22.67;7.43;;;6.60;99.90;;;;;;6160503;23;20117;-72
2022/12/25 08:04:01;;;;;;;28.85;7.70;;;6.70;99.90;;;;;;6158995;23;20081;-72
2022/12/25 08:06:32;;;;;;;20.30;7.03;;;6.70;99.90;;;;;;6159076;23;20315;-71
2022/12/25 08:09:08;;;;;;;23.15;9.30;;;6.80;99.90;;;;;;6159029;23;20374;-72
2022/12/25 08:11:36;;;;;;;24.55;8.50;;;6.80;99.90;;;;;;6160636;23;20009;-72
2022/12/25 08:14:08;;;;;;;19.55;7.30;;;6.90;99.90;;;;;;6160644;23;20010;-72
2022/12/25 08:16:38;;;;;;;25.38;9.75;;;6.90;99.90;;;;;;6160320;23;20327;-71
2022/12/25 08:19:10;;;;;;;24.52;9.27;;;7.00;99.90;;;;;;6160028;23;20001;-72
2022/12/25 08:21:38;;;;;;;22.95;8.80;;;7.00;99.90;;;;;;6158943;23;20012;-72
2022/12/25 08:24:05;;;;;;;25.67;7.97;;;7.10;99.90;;;;;;6160009;23;20100;-71
2022/12/25 08:26:33;;;;;;;23.55;9.00;;;7.10;99.90;;;;;;6161363;23;20351;-71
2022/12/25 08:29:00;;;;;;;23.05;9.02;;;7.20;99.90;;;;;;6160392;23;20005;-71
2022/12/25 08:31:29;;;;;;;27.35;7.38;;;7.20;99.90;;;;;;6160190;23;20029;-72
2022/12/25 08:33:58;;;;;;;28.25;8.15;;;7.20;99.90;;;;;;6160509;23;20072;-72
2022/12/25 08:36:26;;;;;;;18.10;6.47;;;7.20;99.90;;;;;;6160190;23;20072;-71
2022/12/25 08:38:53;;;;;;;23.30;6.63;;;7.30;99.90;;;;;;6160664;23;20259;-71
2022/12/25 08:41:20;;;;;;;22.02;8.05;;;7.30;99.90;;;;;;6158768;23;20141;-71
2022/12/25 08:43:47;;;;;;;17.85;6.72;;;7.30;99.90;;;;;;6160095;23;20057;-72
2022/12/25 08:46:15;;;;;;;19.55;6.50;;;7.40;99.90;;;;;;6158793;23;20282;-71
2022/12/25 08:48:44;;;;;;;20.10;7.18;;;7.40;99.90;;;;;;6160528;23;20002;-71
2022/12/25 08:51:17;;;;;;;19.20;8.93;;;7.40;99.90;;;;;;6158757;23;20348;-71
2022/12/25 08:53:46;;;;;;;19.23;9.13;;;7.30;99.90;;;;;;6160670;23;20080;-71
2022/12/25 08:56:15;;;;;;;24.27;10.00;;;7.40;99.90;;;;;;6160040;23;20056;-71
2022/12/25 08:58:43;;;;;;;17.88;6.65;;;7.40;99.90;;;;;;6158901;23;20271;-71
2022/12/25 09:01:11;;;;;;;11.65;6.15;;;7.40;99.90;;;;;;6158658;23;20013;-71
2022/12/25 09:03:38;;;;;;;13.13;5.78;;;7.50;99.90;;;;;;6159955;23;20001;-71
2022/12/25 09:06:10;;;;;;;16.77;5.75;;;7.50;99.90;;;;;;6160301;23;20386;-71
2022/12/25 09:08:38;;;;;;;22.20;6.60;;;7.60;99.90;;;;;;6160849;23;20006;-71
2022/12/25 09:11:08;;;;;;;22.10;7.38;;;7.60;99.90;;;;;;6159956;23;20342;-71
2022/12/25 09:13:36;;;;;;;15.10;6.25;;;7.60;99.90;;;;;;6158509;23;20009;-71
2022/12/25 09:16:13;;;;;;;15.52;4.85;;;7.70;99.90;;;;;;6159861;23;20275;-71
2022/12/25 09:18:40;;;;;;;19.23;6.13;;;7.70;99.90;;;;;;6160319;23;20002;-71
2022/12/25 09:21:10;;;;;;;20.70;7.82;;;7.80;99.90;;;;;;6160556;23;20259;-71
2022/12/25 09:23:37;;;;;;;26.02;13.50;;;7.80;99.90;;;;;;6158281;23;20465;-71
2022/12/25 09:26:07;;;;;;;13.85;6.03;;;7.90;99.90;;;;;;6159870;23;20009;-71
2022/12/25 09:28:34;;;;;;;16.95;6.15;;;8.00;99.90;;;;;;6159886;23;20032;-71
2022/12/25 09:31:02;;;;;;;18.42;6.38;;;8.00;99.90;;;;;;6161258;23;20002;-71
2022/12/25 09:33:29;;;;;;;15.23;6.60;;;8.00;99.90;;;;;;6161895;23;20009;-71
2022/12/25 09:35:59;;;;;;;14.27;5.75;;;8.00;99.90;;;;;;6162518;23;20001;-71
2022/12/25 09:38:27;;;;;;;12.68;5.60;;;8.00;99.90;;;;;;6161798;23;19998;-71
2022/12/25 09:41:23;;;;;;;12.25;5.32;;;7.90;99.90;;;;;;6160499;23;20056;-71
2022/12/25 09:44:01;;;;;;;10.20;4.28;;;7.90;99.90;;;;;;6162568;23;20006;-71
2022/12/25 09:46:39;;;;;;;12.88;5.30;;;7.90;99.90;;;;;;6160413;23;20010;-72
2022/12/25 09:49:25;;;;;;;14.05;5.15;;;7.90;99.90;;;;;;6161861;23;20314;-71
2022/12/25 09:52:03;;;;;;;13.38;5.35;;;7.90;99.90;;;;;;6161595;23;20010;-72
2022/12/25 09:54:46;;;;;;;10.02;5.40;;;7.90;99.90;;;;;;6160253;23;20037;-71
2022/12/25 09:57:14;;;;;;;10.75;5.55;;;7.90;99.90;;;;;;6162512;23;20154;-72
2022/12/25 09:59:46;;;;;;;10.82;5.90;;;8.00;99.90;;;;;;6135803;23;20009;-72
2022/12/25 10:02:50;;;;;;;14.00;5.50;;;7.90;99.90;;;;;;6161130;23;20060;-72
2022/12/25 10:05:47;;;;;;;14.18;5.63;;;8.00;99.90;;;;;;6160091;23;20014;-71
2022/12/25 10:08:39;;;;;;;9.45;4.90;;;8.00;99.90;;;;;;6160378;23;20085;-71
2022/12/25 10:11:40;;;;;;;11.52;5.18;;;8.00;99.90;;;;;;6161822;23;19997;-71
2022/12/25 10:14:29;;;;;;;13.75;6.50;;;8.00;99.90;;;;;;6061914;23;20020;-71
2022/12/25 10:17:30;;;;;;;14.77;6.05;;;8.10;99.90;;;;;;6162121;23;20355;-71
2022/12/25 10:20:39;;;;;;;14.18;5.70;;;8.10;99.90;;;;;;6161393;23;20005;-71
2022/12/25 10:23:40;;;;;;;9.40;4.70;;;8.20;99.90;;;;;;6159785;23;20048;-71
2022/12/25 10:26:20;;;;;;;14.40;5.20;;;8.20;99.90;;;;;;6156368;23;20036;-71
2022/12/25 10:29:12;;;;;;;7.70;5.00;;;8.30;99.90;;;;;;6162251;23;20010;-71
2022/12/25 10:31:44;;;;;;;9.20;4.72;;;8.40;99.90;;;;;;6161574;23;20370;-71
2022/12/25 10:34:13;;;;;;;14.05;5.50;;;8.40;99.90;;;;;;6161282;23;20028;-68
2022/12/25 10:36:44;;;;;;;10.00;4.60;;;8.40;99.90;;;;;;6161157;23;20013;-71
2022/12/25 10:39:22;;;;;;;16.75;6.60;;;8.40;99.90;;;;;;6161124;23;20271;-71
2022/12/25 10:42:22;;;;;;;10.63;4.78;;;8.40;99.90;;;;;;6160781;23;19998;-71
2022/12/25 10:45:05;;;;;;;17.40;5.72;;;8.50;99.90;;;;;;6161107;23;20006;-71
2022/12/25 10:47:39;;;;;;;10.02;3.88;;;8.50;99.90;;;;;;6161168;23;20013;-71
2022/12/25 10:50:22;;;;;;;16.70;6.80;;;8.50;99.90;;;;;;6160990;23;20073;-71
2022/12/25 10:53:03;;;;;;;14.65;6.18;;;8.50;99.90;;;;;;6161299;23;20048;-71
2022/12/25 10:55:31;;;;;;;8.13;4.25;;;8.50;99.90;;;;;;6161115;23;20005;-71
2022/12/25 10:58:01;;;;;;;8.82;3.75;;;8.60;99.90;;;;;;6161145;23;20367;-71
2022/12/25 11:00:31;;;;;;;8.25;4.07;;;8.60;99.90;;;;;;6160887;23;20048;-71
2022/12/25 11:02:59;;;;;;;10.32;4.18;;;8.60;99.90;;;;;;6161107;23;20024;-71
2022/12/25 11:05:29;;;;;;;8.18;3.58;;;8.60;99.90;;;;;;6161370;23;20316;-71
2022/12/25 11:07:59;;;;;;;7.88;3.70;;;8.60;99.90;;;;;;6160919;23;20080;-71
2022/12/25 11:10:42;;;;;;;7.80;3.35;;;8.60;99.90;;;;;;6160962;23;20315;-71
2022/12/25 11:13:29;;;;;;;7.55;3.10;;;8.60;99.90;;;;;;6159684;23;20001;-71
2022/12/25 11:16:26;;;;;;;7.50;3.53;;;8.60;99.90;;;;;;6161596;23;20310;-71
2022/12/25 11:18:55;;;;;;;5.25;3.05;;;8.70;99.90;;;;;;6160328;23;20022;-72
2022/12/25 11:21:37;;;;;;;6.05;2.95;;;8.70;99.90;;;;;;6160912;23;20307;-71
2022/12/25 11:24:19;;;;;;;6.38;3.10;;;8.70;99.90;;;;;;6160896;23;20022;-71
2022/12/25 11:26:51;;;;;;;8.88;3.15;;;8.70;99.90;;;;;;6160809;23;19998;-71
2022/12/25 11:29:39;;;;;;;7.68;3.15;;;8.70;99.90;;;;;;6159503;23;20016;-71
2022/12/25 11:32:37;;;;;;;7.72;3.03;;;8.60;99.90;;;;;;6161224;23;20005;-71
2022/12/25 11:35:13;;;;;;;7.50;3.85;;;8.60;99.90;;;;;;6159249;23;20080;-71
2022/12/25 11:37:52;;;;;;;6.93;3.08;;;8.60;99.90;;;;;;6159422;23;20009;-71
2022/12/25 11:40:37;;;;;;;8.52;3.42;;;8.60;99.90;;;;;;6160998;23;20002;-71
2022/12/25 11:43:19;;;;;;;6.78;3.47;;;8.60;99.90;;;;;;6160827;23;20001;-71
2022/12/25 11:46:06;;;;;;;4.38;2.80;;;8.60;99.90;;;;;;6161318;23;20009;-71
2022/12/25 11:48:54;;;;;;;6.80;3.28;;;8.50;99.90;;;;;;6160820;23;20002;-71
2022/12/25 11:51:33;;;;;;;7.25;3.65;;;8.50;99.90;;;;;;6160461;23;20006;-71
2022/12/25 11:54:20;;;;;;;6.78;3.50;;;8.50;99.90;;;;;;6160747;23;20002;-71
2022/12/25 11:56:47;;;;;;;8.82;4.90;;;8.50;99.90;;;;;;6159153;23;20012;-71
2022/12/25 11:59:25;;;;;;;6.22;3.30;;;8.50;99.90;;;;;;6159183;23;20005;-71
2022/12/25 12:02:02;;;;;;;5.10;3.45;;;8.50;99.90;;;;;;6161135;23;20445;-71
2022/12/25 12:04:54;;;;;;;8.68;4.13;;;8.50;99.90;;;;;;6158969;23;20013;-71
2022/12/25 12:07:28;;;;;;;7.57;4.00;;;8.50;99.90;;;;;;6160650;23;20028;-71
2022/12/25 12:10:05;;;;;;;5.13;3.40;;;8.50;99.90;;;;;;6159051;23;20351;-71
2022/12/25 12:12:39;;;;;;;6.15;3.58;;;8.50;99.90;;;;;;6161071;23;20267;-71
2022/12/25 12:15:28;;;;;;;6.30;4.03;;;8.50;99.90;;;;;;6160913;23;20381;-71
2022/12/25 12:18:08;;;;;;;12.43;3.95;;;8.50;99.90;;;;;;6161436;23;20051;-71
2022/12/25 12:20:36;;;;;;;6.65;3.38;;;8.50;99.90;;;;;;6161003;23;20004;-71
2022/12/25 12:23:15;;;;;;;7.28;3.58;;;8.50;99.90;;;;;;6160113;23;20096;-71
2022/12/25 12:25:44;;;;;;;6.20;3.20;;;8.50;99.90;;;;;;6160267;23;20001;-71
2022/12/25 12:28:22;;;;;;;7.35;4.32;;;8.50;99.90;;;;;;6159111;23;20244;-71
2022/12/25 12:31:03;;;;;;;6.63;3.67;;;8.50;99.90;;;;;;6158859;23;20006;-71
2022/12/25 12:33:56;;;;;;;7.63;3.10;;;8.50;99.90;;;;;;6160325;23;20423;-72
2022/12/25 12:36:25;;;;;;;8.10;3.42;;;8.50;99.90;;;;;;6160102;23;20248;-72
2022/12/25 12:38:56;;;;;;;6.72;3.15;;;8.50;99.90;;;;;;6160381;23;20267;-72
2022/12/25 12:41:38;;;;;;;4.88;2.70;;;8.50;99.90;;;;;;6160838;23;20010;-72
2022/12/25 12:44:06;;;;;;;5.80;3.55;;;8.50;99.90;;;;;;6160168;23;20012;-71
2022/12/25 12:46:38;;;;;;;10.00;2.95;;;8.60;99.90;;;;;;6159108;23;20009;-72
2022/12/25 12:49:27;;;;;;;8.13;2.70;;;8.60;99.90;;;;;;6160254;23;20032;-72
2022/12/25 12:52:30;;;;;;;8.20;2.92;;;8.60;99.90;;;;;;6159971;23;20012;-71
2022/12/25 12:55:07;;;;;;;7.88;3.10;;;8.60;99.90;;;;;;6159962;23;20081;-72
2022/12/25 12:57:41;;;;;;;5.85;2.60;;;8.60;99.90;;;;;;6160204;23;20031;-72
2022/12/25 13:00:17;;;;;;;4.80;2.92;;;8.60;99.90;;;;;;6160035;23;20076;-72
2022/12/25 13:03:06;;;;;;;5.38;3.38;;;8.60;99.90;;;;;;6160676;23;20368;-72
2022/12/25 13:05:50;;;;;;;6.78;2.75;;;8.60;99.90;;;;;;6158442;23;20005;-71
2022/12/25 13:08:49;;;;;;;5.50;3.28;;;8.60;99.90;;;;;;6159930;23;20002;-72
2022/12/25 13:11:31;;;;;;;6.72;2.70;;;8.60;99.90;;;;;;6159874;23;20006;-72
2022/12/25 13:14:02;;;;;;;7.65;2.88;;;8.60;99.90;;;;;;6158484;23;20275;-71
2022/12/25 13:16:33;;;;;;;6.28;2.88;;;8.60;99.90;;;;;;6160108;23;20401;-71
2022/12/25 13:19:06;;;;;;;6.35;3.72;;;8.60;99.90;;;;;;6158471;23;20009;-72
2022/12/25 13:21:34;;;;;;;6.72;2.80;;;8.60;99.90;;;;;;6160814;23;20310;-71
2022/12/25 13:24:09;;;;;;;5.53;2.75;;;8.60;99.90;;;;;;6159979;23;20021;-71
2022/12/25 13:26:38;;;;;;;5.30;3.00;;;8.60;99.90;;;;;;6159969;23;20004;-71
2022/12/25 13:29:06;;;;;;;6.47;2.70;;;8.60;99.90;;;;;;6160907;23;20001;-71
2022/12/25 13:31:35;;;;;;;5.88;2.90;;;8.60;99.90;;;;;;6160123;23;20002;-71
2022/12/25 13:34:38;;;;;;;8.25;3.50;;;8.60;99.90;;;;;;6159885;23;20012;-71
2022/12/25 13:37:14;;;;;;;6.22;3.13;;;8.60;99.90;;;;;;6098848;23;20005;-72
2022/12/25 13:39:51;;;;;;;;;;;8.60;99.90;;;;;;6135542;23;20009;-71
2022/12/25 13:42:46;;;;;;;10.10;3.35;;;8.60;99.90;;;;;;6160377;23;19901;-71
2022/12/25 13:45:13;;;;;;;5.55;3.17;;;8.60;99.90;;;;;;6159828;23;20389;-71
2022/12/25 13:47:44;;;;;;;7.15;3.80;;;8.50;99.90;;;;;;6159740;23;20330;-71
2022/12/25 13:50:23;;;;;;;4.97;3.47;;;8.50;99.90;;;;;;6159727;23;20029;-71
2022/12/25 13:52:52;;;;;;;5.05;3.30;;;8.50;99.90;;;;;;6160014;23;20374;-71
2022/12/25 13:55:21;;;;;;;6.95;3.83;;;8.50;99.90;;;;;;6160338;23;20008;-71
2022/12/25 13:57:58;;;;;;;6.65;3.58;;;8.50;99.90;;;;;;6160192;23;20363;-71
2022/12/25 14:00:38;;;;;;;10.13;4.55;;;8.50;99.90;;;;;;6158407;23;20370;-71
2022/12/25 14:03:07;;;;;;;8.82;3.80;;;8.50;99.90;;;;;;6159873;23;20009;-71
2022/12/25 14:05:36;;;;;;;8.48;3.38;;;8.50;99.90;;;;;;6160371;23;20355;-71
2022/12/25 14:08:21;;;;;;;6.30;2.85;;;8.50;99.90;;;;;;6159729;23;20077;-71
2022/12/25 14:10:51;;;;;;;5.47;3.13;;;8.50;99.90;;;;;;6160303;23;20006;-71
2022/12/25 14:13:22;;;;;;;5.63;3.67;;;8.50;99.90;;;;;;6160760;23;20251;-71
2022/12/25 14:15:50;;;;;;;5.22;3.58;;;8.50;99.90;;;;;;6160414;23;20009;-71
2022/12/25 14:18:19;;;;;;;5.22;3.55;;;8.60;99.90;;;;;;6160023;23;20012;-71
2022/12/25 14:21:22;;;;;;;8.07;3.30;;;8.50;99.90;;;;;;6161513;23;19997;-71
2022/12/25 14:23:50;;;;;;;8.45;3.30;;;8.50;99.90;;;;;;6159714;23;20037;-71
2022/12/25 14:26:25;;;;;;;5.15;2.95;;;8.50;99.90;;;;;;6162058;23;20263;-71
2022/12/25 14:29:04;;;;;;;7.32;3.80;;;8.50;99.90;;;;;;6161300;23;20059;-71
2022/12/25 14:31:33;;;;;;;5.50;2.53;;;8.50;99.90;;;;;;6161316;23;20005;-71
2022/12/25 14:34:02;;;;;;;10.02;4.32;;;8.50;99.90;;;;;;6159824;23;20014;-71
2022/12/25 14:36:31;;;;;;;7.68;3.80;;;8.60;99.90;;;;;;6161224;23;20367;-71
2022/12/25 14:39:04;;;;;;;20.58;9.50;;;8.50;99.90;;;;;;6160103;23;20283;-71
2022/12/25 14:41:38;;;;;;;12.98;6.15;;;8.50;99.90;;;;;;6161911;23;19998;-71
2022/12/25 14:44:40;;;;;;;16.63;7.95;;;8.50;99.90;;;;;;6161149;23;20279;-71
2022/12/25 14:47:17;;;;;;;10.75;5.65;;;8.60;99.90;;;;;;6162028;23;20371;-71
2022/12/25 14:49:45;;;;;;;7.40;4.70;;;8.50;99.90;;;;;;6161107;23;20005;-71
2022/12/25 14:52:26;;;;;;;6.68;3.10;;;8.60;99.90;;;;;;6161533;23;20005;-71
2022/12/25 14:55:00;;;;;;;5.53;3.05;;;8.50;99.90;;;;;;6161309;23;20006;-71
2022/12/25 14:57:37;;;;;;;4.85;3.22;;;8.50;99.90;;;;;;6161767;23;20009;-71
2022/12/25 15:00:36;;;;;;;6.10;2.97;;;8.50;99.90;;;;;;6161961;23;20314;-71
2022/12/25 15:03:23;;;;;;;8.68;4.88;;;8.50;99.90;;;;;;6161622;23;20300;-71
2022/12/25 15:06:01;;;;;;;7.53;4.40;;;8.50;99.90;;;;;;6161069;23;20334;-71
2022/12/25 15:08:30;;;;;;;6.07;3.67;;;8.60;99.90;;;;;;6161120;23;20117;-71